Time;durP1;ratioP1;P1;durP2;ratioP2;P2;SDS_P1;SDS_P2;PMS_P1;PMS_P2;Temp;Humidity;BMP_temperature;BMP_pressure;BME280_temperature;BME280_humidity;BME280_pressure;Samples;Min_cycle;Max_cycle;Signal;HPM_P1;HPM_P2
2023/12/13 00:00:18;;;;;;;1.30;0.97;;;9.00;88.10;;;;;;5040204;28;20463;-73
2023/12/13 00:02:44;;;;;;;1.90;1.00;;;9.10;88.30;;;;;;5048887;28;20185;-72
2023/12/13 00:05:10;;;;;;;6.20;0.87;;;9.10;88.10;;;;;;5044472;28;20448;-73
2023/12/13 00:07:35;;;;;;;3.10;0.80;;;9.10;87.80;;;;;;5041498;28;20757;-74
2023/12/13 00:10:01;;;;;;;2.40;1.10;;;9.00;87.70;;;;;;5033992;28;20205;-74
2023/12/13 00:12:26;;;;;;;1.27;0.90;;;9.10;87.60;;;;;;5041174;28;20184;-75
2023/12/13 00:14:52;;;;;;;1.03;0.70;;;9.10;86.80;;;;;;5041379;28;20196;-75
2023/12/13 00:17:18;;;;;;;2.70;0.83;;;9.10;86.60;;;;;;5043835;28;20216;-74
2023/12/13 00:19:43;;;;;;;3.03;1.10;;;9.10;86.20;;;;;;5033955;28;20228;-75
2023/12/13 00:22:09;;;;;;;4.93;1.07;;;9.30;86.00;;;;;;5041871;28;20424;-74
2023/12/13 00:24:34;;;;;;;1.27;1.00;;;9.30;85.90;;;;;;5040112;28;20259;-74
2023/12/13 00:27:00;;;;;;;2.20;1.10;;;9.30;85.70;;;;;;5043329;28;20186;-72
2023/12/13 00:29:26;;;;;;;1.10;0.93;;;9.30;85.20;;;;;;5040827;28;20257;-74
2023/12/13 00:31:51;;;;;;;2.03;1.07;;;9.30;84.70;;;;;;5041781;28;20180;-72
2023/12/13 00:34:17;;;;;;;2.60;0.73;;;9.30;84.60;;;;;;5042874;28;20196;-72
2023/12/13 00:36:42;;;;;;;1.23;0.90;;;9.20;84.60;;;;;;5038610;28;20195;-73
2023/12/13 00:39:08;;;;;;;1.53;0.90;;;9.20;84.40;;;;;;5040027;28;20697;-72
2023/12/13 00:41:33;;;;;;;2.00;0.70;;;9.20;84.30;;;;;;5041612;28;20265;-73
2023/12/13 00:43:59;;;;;;;4.23;1.00;;;9.20;84.10;;;;;;5041661;28;20205;-73
2023/12/13 00:46:26;;;;;;;1.90;1.10;;;9.10;84.00;;;;;;5049219;28;20185;-73
2023/12/13 00:48:52;;;;;;;1.47;0.90;;;9.10;84.30;;;;;;5051557;28;20213;-74
2023/12/13 00:51:19;;;;;;;2.53;0.90;;;9.10;84.40;;;;;;5049491;28;20580;-73
2023/12/13 00:53:45;;;;;;;1.40;0.80;;;9.10;84.60;;;;;;5045920;28;20215;-72
2023/12/13 00:56:11;;;;;;;3.03;1.43;;;9.00;84.70;;;;;;5044247;28;20439;-74
2023/12/13 00:58:37;;;;;;;2.10;1.00;;;9.00;84.90;;;;;;5045555;28;20189;-73
2023/12/13 01:01:03;;;;;;;5.63;1.00;;;9.00;85.00;;;;;;5040939;28;20515;-73
2023/12/13 01:03:29;;;;;;;2.20;0.90;;;8.90;85.00;;;;;;5043701;28;20427;-73
2023/12/13 01:05:54;;;;;;;3.57;1.03;;;8.80;85.50;;;;;;5046619;28;20415;-74
2023/12/13 01:08:20;;;;;;;3.33;1.20;;;8.90;85.70;;;;;;5042919;28;20216;-74
2023/12/13 01:10:46;;;;;;;1.53;0.80;;;8.80;85.60;;;;;;5032439;28;20244;-75
2023/12/13 01:13:11;;;;;;;2.30;1.03;;;8.80;85.60;;;;;;5035709;28;20196;-74
2023/12/13 01:15:37;;;;;;;1.57;0.90;;;8.70;85.60;;;;;;5038330;28;20196;-73
2023/12/13 01:18:03;;;;;;;4.43;1.00;;;8.70;85.70;;;;;;5039507;28;20173;-74
2023/12/13 01:20:29;;;;;;;2.37;0.93;;;8.70;85.70;;;;;;5032696;28;20569;-75
2023/12/13 01:22:54;;;;;;;2.67;0.70;;;8.70;85.70;;;;;;5036724;28;20430;-73
2023/12/13 01:25:20;;;;;;;2.07;1.10;;;8.80;85.60;;;;;;5045716;28;21178;-74
2023/12/13 01:27:46;;;;;;;2.57;0.80;;;8.70;85.50;;;;;;5038149;28;20730;-75
2023/12/13 01:30:11;;;;;;;2.83;1.00;;;8.70;85.30;;;;;;5044218;28;20334;-74
2023/12/13 01:32:37;;;;;;;0.93;0.77;;;8.70;85.30;;;;;;5044168;28;20665;-74
2023/12/13 01:35:04;;;;;;;1.33;0.83;;;8.70;85.60;;;;;;5053789;28;20187;-73
2023/12/13 01:37:29;;;;;;;2.20;1.20;;;8.70;85.60;;;;;;5049517;28;20192;-74
2023/12/13 01:39:56;;;;;;;3.70;0.80;;;8.70;85.60;;;;;;5046942;28;20589;-73
2023/12/13 01:42:23;;;;;;;1.50;0.90;;;8.60;85.60;;;;;;5045200;28;20575;-73
2023/12/13 01:44:49;;;;;;;12.30;2.20;;;8.70;85.20;;;;;;5047588;28;20430;-73
2023/12/13 01:47:15;;;;;;;1.10;0.80;;;8.90;84.40;;;;;;5054499;28;20437;-73
2023/12/13 01:49:41;;;;;;;5.43;1.90;;;8.90;84.10;;;;;;5045536;28;20958;-73
2023/12/13 01:52:07;;;;;;;1.90;0.90;;;8.90;84.00;;;;;;5046015;28;20438;-73
2023/12/13 01:54:34;;;;;;;3.17;1.00;;;9.00;83.80;;;;;;5046597;28;20197;-72
2023/12/13 01:57:00;;;;;;;2.10;0.90;;;9.00;83.80;;;;;;5051912;28;20478;-73
2023/12/13 01:59:28;;;;;;;6.40;1.07;;;9.00;83.70;;;;;;5048676;28;20457;-73
2023/12/13 02:01:56;;;;;;;3.43;1.00;;;9.00;83.40;;;;;;5048862;28;20428;-74
2023/12/13 02:04:25;;;;;;;2.63;0.80;;;9.00;83.30;;;;;;5041309;28;20791;-73
2023/12/13 02:06:51;;;;;;;4.30;1.37;;;8.90;83.30;;;;;;5037275;28;20448;-73
2023/12/13 02:09:17;;;;;;;3.07;0.90;;;8.90;83.30;;;;;;5040859;28;20459;-73
2023/12/13 02:11:43;;;;;;;0.90;0.63;;;9.00;82.80;;;;;;5036629;28;20498;-72
2023/12/13 02:14:08;;;;;;;2.83;0.87;;;9.00;82.80;;;;;;5040888;28;20423;-73
2023/12/13 02:16:34;;;;;;;3.40;0.90;;;9.00;82.70;;;;;;5041371;28;20184;-71
2023/12/13 02:19:00;;;;;;;2.47;0.93;;;9.00;82.70;;;;;;5041732;28;20176;-72
2023/12/13 02:21:26;;;;;;;1.27;0.80;;;8.90;82.70;;;;;;5038229;28;20219;-71
2023/12/13 02:23:58;;;;;;;4.47;1.00;;;9.00;82.70;;;;;;5041467;28;20718;-71
2023/12/13 02:26:24;;;;;;;2.50;0.67;;;8.90;82.80;;;;;;5041096;28;20230;-71
2023/12/13 02:28:50;;;;;;;1.03;0.70;;;8.90;82.80;;;;;;5041797;28;20466;-72
2023/12/13 02:31:17;;;;;;;1.90;0.80;;;9.00;83.00;;;;;;5035936;28;20459;-71
2023/12/13 02:33:43;;;;;;;3.10;0.70;;;9.00;82.80;;;;;;5045879;28;20184;-72
2023/12/13 02:36:09;;;;;;;1.60;0.90;;;9.00;82.80;;;;;;5042368;28;20423;-72
2023/12/13 02:38:35;;;;;;;2.60;0.70;;;9.00;82.70;;;;;;5044210;28;20421;-72
2023/12/13 02:41:00;;;;;;;1.40;0.83;;;9.00;82.80;;;;;;5036108;28;20854;-72
2023/12/13 02:43:27;;;;;;;3.00;1.07;;;9.00;83.00;;;;;;5063610;28;20359;-72
2023/12/13 02:45:53;;;;;;;1.10;0.80;;;9.00;83.10;;;;;;5047756;28;20187;-72
2023/12/13 02:48:19;;;;;;;1.07;0.70;;;8.90;83.30;;;;;;5044365;28;20481;-72
2023/12/13 02:50:45;;;;;;;2.53;0.93;;;8.90;83.30;;;;;;5047007;28;20271;-72
2023/12/13 02:53:11;;;;;;;2.40;1.20;;;8.80;83.60;;;;;;5035302;28;20192;-72
2023/12/13 02:55:37;;;;;;;2.20;0.80;;;8.80;83.80;;;;;;5043235;28;20823;-73
2023/12/13 02:58:04;;;;;;;1.23;0.70;;;8.80;84.00;;;;;;5039045;28;20508;-73
2023/12/13 03:00:30;;;;;;;1.27;0.77;;;8.70;84.10;;;;;;5043388;28;20609;-72
2023/12/13 03:02:58;;;;;;;1.90;0.90;;;8.70;84.30;;;;;;5041531;28;20435;-74
2023/12/13 03:05:24;;;;;;;1.73;1.10;;;8.60;84.60;;;;;;5043171;28;20207;-73
2023/12/13 03:07:50;;;;;;;1.43;0.87;;;8.60;84.70;;;;;;5039856;28;20463;-73
2023/12/13 03:10:15;;;;;;;1.47;0.70;;;8.60;84.90;;;;;;5059336;28;20571;-73
2023/12/13 03:12:41;;;;;;;1.40;1.00;;;8.60;84.90;;;;;;5044759;28;20185;-73
2023/12/13 03:15:08;;;;;;;1.80;0.90;;;8.60;84.90;;;;;;5041334;28;20215;-73
2023/12/13 03:17:33;;;;;;;2.37;0.87;;;8.60;84.90;;;;;;5040381;28;20609;-73
2023/12/13 03:19:59;;;;;;;2.53;1.10;;;8.60;85.00;;;;;;5036853;28;20508;-72
2023/12/13 03:22:25;;;;;;;4.30;1.23;;;8.60;85.20;;;;;;5049073;28;20184;-73
2023/12/13 03:24:54;;;;;;;2.90;1.20;;;8.60;85.00;;;;;;5041114;28;20246;-74
2023/12/13 03:27:19;;;;;;;3.03;1.00;;;8.50;85.00;;;;;;5052169;28;20563;-73
2023/12/13 03:29:45;;;;;;;4.57;1.00;;;8.50;85.00;;;;;;5041148;28;20462;-71
2023/12/13 03:32:10;;;;;;;7.10;1.17;;;8.40;85.20;;;;;;5038594;28;20668;-72
2023/12/13 03:34:37;;;;;;;5.03;1.20;;;8.30;85.90;;;;;;5040980;28;20626;-73
2023/12/13 03:37:06;;;;;;;3.90;1.00;;;8.40;86.00;;;;;;5049313;28;20684;-72
2023/12/13 03:39:32;;;;;;;1.67;1.07;;;8.30;86.00;;;;;;5038989;28;20548;-74
2023/12/13 03:41:58;;;;;;;5.00;1.30;;;8.30;86.00;;;;;;5033224;28;20412;-72
2023/12/13 03:44:23;;;;;;;1.80;1.20;;;8.40;86.20;;;;;;5038928;28;20798;-73
2023/12/13 03:46:49;;;;;;;2.93;1.00;;;8.30;86.20;;;;;;5044339;28;20196;-72
2023/12/13 03:49:16;;;;;;;3.30;0.90;;;8.40;86.50;;;;;;5034761;28;20213;-73
2023/12/13 03:51:46;;;;;;;5.17;1.20;;;8.40;86.60;;;;;;5035885;28;20217;-72
2023/12/13 03:54:12;;;;;;;1.90;1.10;;;8.40;86.60;;;;;;5036776;28;20928;-73
2023/12/13 03:56:37;;;;;;;2.30;1.00;;;8.40;86.60;;;;;;5049524;28;20443;-74
2023/12/13 03:59:03;;;;;;;1.70;1.00;;;8.40;86.60;;;;;;5037890;28;20477;-74
2023/12/13 04:01:29;;;;;;;3.67;1.23;;;8.40;86.60;;;;;;5038422;28;20712;-73
2023/12/13 04:03:54;;;;;;;3.60;1.10;;;8.40;86.80;;;;;;5045572;28;20195;-73
2023/12/13 04:06:20;;;;;;;6.13;1.90;;;8.40;86.80;;;;;;5042926;28;20190;-73
2023/12/13 04:08:45;;;;;;;2.10;1.10;;;8.40;86.60;;;;;;5038806;28;20212;-72
2023/12/13 04:11:11;;;;;;;2.77;1.07;;;8.40;86.80;;;;;;5041893;28;20205;-72
2023/12/13 04:13:36;;;;;;;4.27;1.00;;;8.30;86.80;;;;;;5040961;28;20197;-72
2023/12/13 04:16:02;;;;;;;4.30;0.90;;;8.30;86.80;;;;;;5048576;28;20596;-72
2023/12/13 04:18:27;;;;;;;4.70;1.30;;;8.20;86.80;;;;;;5045597;28;20189;-72
2023/12/13 04:20:53;;;;;;;4.33;1.20;;;8.20;86.80;;;;;;5040663;28;20254;-73
2023/12/13 04:23:19;;;;;;;1.07;0.80;;;8.20;86.90;;;;;;5050882;28;20193;-73
2023/12/13 04:25:44;;;;;;;1.73;0.90;;;8.20;86.90;;;;;;5044597;28;20245;-73
2023/12/13 04:28:10;;;;;;;4.40;1.30;;;8.20;87.00;;;;;;5047983;28;20212;-72
2023/12/13 04:30:35;;;;;;;3.37;1.13;;;8.10;87.00;;;;;;5038765;28;20323;-73
2023/12/13 04:33:01;;;;;;;4.30;1.20;;;8.00;86.90;;;;;;5037102;28;20202;-73
2023/12/13 04:35:27;;;;;;;2.13;1.40;;;8.00;87.10;;;;;;5035750;28;20239;-73
2023/12/13 04:37:53;;;;;;;3.37;1.30;;;8.00;87.10;;;;;;5040667;28;20200;-73
2023/12/13 04:40:18;;;;;;;2.87;1.27;;;7.90;87.30;;;;;;5039430;28;20821;-73
2023/12/13 04:42:44;;;;;;;2.90;1.27;;;7.90;87.40;;;;;;5039966;28;20188;-73
2023/12/13 04:45:09;;;;;;;3.30;1.50;;;7.80;87.60;;;;;;5040891;28;20753;-74
2023/12/13 04:47:35;;;;;;;6.30;1.30;;;7.70;87.70;;;;;;5042820;28;20759;-74
2023/12/13 04:50:01;;;;;;;6.90;1.60;;;7.60;88.00;;;;;;5039423;28;20213;-73
2023/12/13 04:52:26;;;;;;;3.77;1.40;;;7.60;88.30;;;;;;5041146;28;20185;-73
2023/12/13 04:54:52;;;;;;;1.73;1.17;;;7.60;88.30;;;;;;5043024;28;20200;-73
2023/12/13 04:57:17;;;;;;;3.00;1.30;;;7.50;88.40;;;;;;5046650;28;20172;-75
2023/12/13 04:59:43;;;;;;;3.63;1.60;;;7.50;88.70;;;;;;5040045;28;20216;-74
2023/12/13 05:02:08;;;;;;;3.03;1.30;;;7.60;89.00;;;;;;5042179;28;20181;-73
2023/12/13 05:04:34;;;;;;;1.50;1.10;;;7.60;88.90;;;;;;5038080;28;20212;-73
2023/12/13 05:07:00;;;;;;;2.43;1.20;;;7.60;88.70;;;;;;5043633;28;20185;-72
2023/12/13 05:09:25;;;;;;;4.03;1.83;;;7.60;88.40;;;;;;5049280;28;20212;-76
2023/12/13 05:11:51;;;;;;;2.70;1.57;;;7.60;88.70;;;;;;5044874;28;20184;-73
2023/12/13 05:14:16;;;;;;;2.37;1.10;;;7.60;88.90;;;;;;5045923;28;20204;-73
2023/12/13 05:16:42;;;;;;;2.10;1.10;;;7.60;88.90;;;;;;5050197;28;20195;-73
2023/12/13 05:19:07;;;;;;;1.97;1.20;;;7.60;89.00;;;;;;5050333;28;20276;-74
2023/12/13 05:21:33;;;;;;;2.67;1.13;;;7.60;89.00;;;;;;5039202;28;20258;-74
2023/12/13 05:23:59;;;;;;;2.40;1.50;;;7.70;88.90;;;;;;5043409;28;20299;-73
2023/12/13 05:26:24;;;;;;;3.60;1.57;;;7.90;88.70;;;;;;5044117;28;20192;-73
2023/12/13 05:28:50;;;;;;;4.03;1.67;;;7.80;88.30;;;;;;5049798;28;20458;-73
2023/12/13 05:31:23;;;;;;;2.77;2.03;;;7.90;88.10;;;;;;5044386;28;20698;-74
2023/12/13 05:33:49;;;;;;;3.03;1.30;;;7.90;88.00;;;;;;5049482;28;20676;-73
2023/12/13 05:36:15;;;;;;;3.03;1.20;;;7.90;87.80;;;;;;5044495;28;21185;-74
2023/12/13 05:38:42;;;;;;;2.77;1.40;;;8.00;87.60;;;;;;5047346;28;20416;-75
2023/12/13 05:41:08;;;;;;;2.70;1.00;;;8.00;87.30;;;;;;5039730;28;20537;-75
2023/12/13 05:43:36;;;;;;;1.77;1.60;;;8.00;87.10;;;;;;5046046;28;20420;-73
2023/12/13 05:46:06;;;;;;;4.70;1.63;;;7.90;87.10;;;;;;5042637;28;20493;-74
2023/12/13 05:48:32;;;;;;;4.67;1.40;;;7.90;87.40;;;;;;5045373;28;20455;-73
2023/12/13 05:50:58;;;;;;;2.67;1.30;;;7.90;87.60;;;;;;5046529;28;20470;-75
2023/12/13 05:53:24;;;;;;;3.10;1.03;;;8.00;87.60;;;;;;5046259;28;20261;-77
2023/12/13 05:55:49;;;;;;;3.43;1.47;;;8.00;87.30;;;;;;5045700;28;20494;-73
2023/12/13 05:58:15;;;;;;;2.27;1.30;;;8.00;87.30;;;;;;5045713;28;20251;-74
2023/12/13 06:00:41;;;;;;;3.20;1.30;;;8.00;87.60;;;;;;5035923;28;20297;-74
2023/12/13 06:03:06;;;;;;;1.90;1.20;;;8.00;87.70;;;;;;5045216;28;20196;-73
2023/12/13 06:05:32;;;;;;;2.70;1.47;;;8.00;87.60;;;;;;5045025;28;20188;-75
2023/12/13 06:07:57;;;;;;;6.30;2.00;;;8.00;87.30;;;;;;5042832;28;20254;-74
2023/12/13 06:10:23;;;;;;;2.93;1.20;;;8.00;87.10;;;;;;5036357;28;20587;-73
2023/12/13 06:12:51;;;;;;;5.33;2.07;;;8.00;87.30;;;;;;5043696;28;20210;-73
2023/12/13 06:15:16;;;;;;;3.73;1.57;;;7.90;87.40;;;;;;5045557;28;20272;-76
2023/12/13 06:17:42;;;;;;;4.83;2.23;;;7.90;87.60;;;;;;5040620;28;20444;-73
2023/12/13 06:20:08;;;;;;;4.37;1.83;;;8.00;87.70;;;;;;5032965;28;20221;-71
2023/12/13 06:22:34;;;;;;;2.33;1.40;;;8.00;87.70;;;;;;5038713;28;20239;-72
2023/12/13 06:24:59;;;;;;;2.77;1.70;;;8.00;87.60;;;;;;5044492;28;20415;-72
2023/12/13 06:27:25;;;;;;;4.53;1.53;;;7.90;87.70;;;;;;5038541;28;20216;-74
2023/12/13 06:29:51;;;;;;;3.47;1.57;;;8.00;87.70;;;;;;5041790;28;20204;-73
2023/12/13 06:32:16;;;;;;;4.13;1.37;;;8.00;87.70;;;;;;5047152;28;20177;-73
2023/12/13 06:34:42;;;;;;;2.90;1.20;;;8.20;88.00;;;;;;5050019;28;20181;-75
2023/12/13 06:37:07;;;;;;;4.57;0.97;;;8.30;87.60;;;;;;5044182;28;20192;-73
2023/12/13 06:39:33;;;;;;;1.67;1.10;;;8.50;87.30;;;;;;5048084;28;20245;-74
2023/12/13 06:41:59;;;;;;;3.37;1.33;;;8.60;87.00;;;;;;5048756;28;20642;-73
2023/12/13 06:44:24;;;;;;;2.47;1.60;;;8.60;86.50;;;;;;5046736;28;20187;-73
2023/12/13 06:46:50;;;;;;;3.10;1.30;;;8.60;86.00;;;;;;5046893;28;20686;-72
2023/12/13 06:49:17;;;;;;;4.30;1.57;;;8.60;85.90;;;;;;5044365;28;20747;-73
2023/12/13 06:51:42;;;;;;;4.77;1.83;;;8.60;86.20;;;;;;5049656;28;20226;-73
2023/12/13 06:54:08;;;;;;;2.17;1.20;;;8.70;86.20;;;;;;5041077;28;20435;-75
2023/12/13 06:56:35;;;;;;;2.00;1.00;;;8.70;86.00;;;;;;5051178;28;20188;-72
2023/12/13 06:59:00;;;;;;;3.17;1.10;;;8.80;85.70;;;;;;5042026;28;20506;-72
2023/12/13 07:01:26;;;;;;;3.47;1.30;;;8.90;85.30;;;;;;5048586;28;20601;-72
2023/12/13 07:03:51;;;;;;;3.33;1.10;;;8.90;85.00;;;;;;5042031;28;20435;-74
2023/12/13 07:06:18;;;;;;;2.47;0.90;;;9.00;84.70;;;;;;5035315;28;20173;-72
2023/12/13 07:08:45;;;;;;;3.50;0.97;;;9.00;84.60;;;;;;5042694;28;20459;-73
2023/12/13 07:11:11;;;;;;;2.30;1.10;;;9.00;84.30;;;;;;5037211;28;20486;-73
2023/12/13 07:13:37;;;;;;;2.20;1.13;;;9.10;83.80;;;;;;5041201;28;20450;-73
2023/12/13 07:16:03;;;;;;;10.37;1.33;;;9.20;83.80;;;;;;5046026;28;20460;-72
2023/12/13 07:18:29;;;;;;;1.10;0.80;;;9.20;83.80;;;;;;5048560;28;20193;-73
2023/12/13 07:20:54;;;;;;;1.40;0.80;;;9.20;83.60;;;;;;5039780;28;21006;-74
2023/12/13 07:23:20;;;;;;;1.40;0.90;;;9.20;83.00;;;;;;5044578;28;20189;-73
2023/12/13 07:25:46;;;;;;;1.90;1.07;;;9.30;82.70;;;;;;5044015;28;20188;-73
2023/12/13 07:28:13;;;;;;;2.10;1.00;;;9.30;82.10;;;;;;5057922;28;20212;-73
2023/12/13 07:30:39;;;;;;;1.83;0.87;;;9.30;82.20;;;;;;5033017;28;20217;-74
2023/12/13 07:33:05;;;;;;;4.47;0.87;;;9.30;81.90;;;;;;5038913;28;20443;-73
2023/12/13 07:35:30;;;;;;;2.43;1.10;;;9.40;82.20;;;;;;5038328;28;20486;-73
2023/12/13 07:37:56;;;;;;;2.13;1.00;;;9.30;82.40;;;;;;5040483;28;20190;-73
2023/12/13 07:40:22;;;;;;;11.80;2.30;;;9.30;82.40;;;;;;5042764;28;20197;-73
2023/12/13 07:42:48;;;;;;;5.90;1.20;;;9.40;82.50;;;;;;5039564;28;20444;-73
2023/12/13 07:45:14;;;;;;;5.17;1.40;;;9.30;82.70;;;;;;5047088;28;20563;-72
2023/12/13 07:47:40;;;;;;;2.43;1.50;;;9.40;82.70;;;;;;5048490;28;20451;-73
2023/12/13 07:50:07;;;;;;;6.50;1.83;;;9.40;83.00;;;;;;5058944;28;20482;-72
2023/12/13 07:52:33;;;;;;;8.90;1.60;;;9.40;83.30;;;;;;5043709;28;20431;-74
2023/12/13 07:54:59;;;;;;;7.97;1.87;;;9.30;83.60;;;;;;5046500;28;20435;-73
2023/12/13 07:57:24;;;;;;;2.43;1.50;;;9.20;84.10;;;;;;5038222;28;20688;-74
2023/12/13 07:59:50;;;;;;;5.23;2.33;;;9.10;84.40;;;;;;5045186;28;20219;-75
2023/12/13 08:02:20;;;;;;;6.30;1.93;;;9.00;84.40;;;;;;5049018;28;20419;-74
2023/12/13 08:04:46;;;;;;;3.57;1.40;;;9.00;84.00;;;;;;5043802;28;20185;-74
2023/12/13 08:07:12;;;;;;;3.77;1.57;;;9.00;83.80;;;;;;5044809;28;20950;-75
2023/12/13 08:09:37;;;;;;;2.00;1.40;;;9.10;84.10;;;;;;5040248;28;20479;-73
2023/12/13 08:12:03;;;;;;;4.27;1.50;;;9.00;84.60;;;;;;5039697;28;20254;-73
2023/12/13 08:14:30;;;;;;;9.33;1.73;;;9.00;85.00;;;;;;5038571;28;20680;-74
2023/12/13 08:16:58;;;;;;;2.13;1.27;;;8.90;85.30;;;;;;5040348;28;20192;-73
2023/12/13 08:19:23;;;;;;;3.00;1.03;;;8.80;85.70;;;;;;5038772;28;20477;-71
2023/12/13 08:21:49;;;;;;;9.43;1.30;;;8.80;86.00;;;;;;5035908;28;20423;-71
2023/12/13 08:24:14;;;;;;;3.57;1.20;;;8.80;86.20;;;;;;5037936;28;20208;-73
2023/12/13 08:26:40;;;;;;;3.23;1.23;;;8.70;86.50;;;;;;5040448;28;20648;-74
2023/12/13 08:29:06;;;;;;;4.03;1.50;;;8.70;86.60;;;;;;5040803;28;20209;-74
2023/12/13 08:31:32;;;;;;;1.57;1.10;;;8.70;86.90;;;;;;5036210;28;20208;-75
2023/12/13 08:33:57;;;;;;;3.77;1.70;;;8.70;86.90;;;;;;5057236;28;20427;-74
2023/12/13 08:36:23;;;;;;;3.30;1.43;;;8.70;87.00;;;;;;5039810;28;20180;-73
2023/12/13 08:38:49;;;;;;;1.73;1.53;;;8.70;87.00;;;;;;5041245;28;20215;-75
2023/12/13 08:41:15;;;;;;;2.00;1.37;;;8.80;87.00;;;;;;5040758;28;20259;-73
2023/12/13 08:43:41;;;;;;;4.63;1.50;;;8.80;87.00;;;;;;5048927;28;20234;-74
2023/12/13 08:46:07;;;;;;;4.73;1.53;;;8.90;86.80;;;;;;5046111;28;20420;-73
2023/12/13 08:48:34;;;;;;;4.40;1.50;;;8.90;86.60;;;;;;5048371;28;20212;-73
2023/12/13 08:50:59;;;;;;;4.60;1.60;;;8.90;86.50;;;;;;5037661;28;20447;-74
2023/12/13 08:53:25;;;;;;;6.00;1.63;;;9.00;86.30;;;;;;5051763;28;20494;-74
2023/12/13 08:55:51;;;;;;;3.20;1.50;;;9.00;86.30;;;;;;5051590;28;20201;-75
2023/12/13 08:58:17;;;;;;;3.00;1.90;;;9.00;86.20;;;;;;5038215;28;20185;-74
2023/12/13 09:00:42;;;;;;;2.70;1.60;;;9.00;86.20;;;;;;5043164;28;20459;-73
2023/12/13 09:03:08;;;;;;;13.83;2.77;;;9.00;86.20;;;;;;5044010;28;20185;-73
2023/12/13 09:05:37;;;;;;;8.53;3.17;;;9.00;86.20;;;;;;5045613;28;20194;-74
2023/12/13 09:08:05;;;;;;;4.77;2.80;;;9.00;86.00;;;;;;5046622;28;20223;-75
2023/12/13 09:10:34;;;;;;;7.00;2.03;;;9.10;85.50;;;;;;5045260;28;20463;-74
2023/12/13 09:13:03;;;;;;;5.53;2.20;;;9.20;85.60;;;;;;5049945;28;20542;-73
2023/12/13 09:15:29;;;;;;;3.80;1.93;;;9.30;85.50;;;;;;5043776;28;20423;-74
2023/12/13 09:17:54;;;;;;;4.43;2.13;;;9.30;85.50;;;;;;5044935;28;20443;-73
2023/12/13 09:20:20;;;;;;;4.17;1.90;;;9.50;85.60;;;;;;5049513;28;20213;-75
2023/12/13 09:22:46;;;;;;;5.93;1.87;;;9.50;85.00;;;;;;5044120;28;20613;-73
2023/12/13 09:25:15;;;;;;;2.50;1.87;;;9.60;84.90;;;;;;5041954;28;20255;-73
2023/12/13 09:27:41;;;;;;;5.03;1.97;;;9.60;84.60;;;;;;5043432;28;20176;-72
2023/12/13 09:30:11;;;;;;;2.80;1.83;;;9.50;84.60;;;;;;5042086;28;20994;-73
2023/12/13 09:32:38;;;;;;;5.70;1.93;;;9.50;84.90;;;;;;5045285;28;20473;-74
2023/12/13 09:35:04;;;;;;;4.67;1.83;;;9.50;84.90;;;;;;5041198;28;20427;-74
2023/12/13 09:37:30;;;;;;;6.90;1.60;;;9.50;84.40;;;;;;5043219;28;20422;-73
2023/12/13 09:39:56;;;;;;;3.33;1.97;;;9.60;84.30;;;;;;5043477;28;20450;-74
2023/12/13 09:42:24;;;;;;;3.83;1.83;;;9.70;83.80;;;;;;5041171;28;20830;-72
2023/12/13 09:44:49;;;;;;;4.27;1.57;;;9.70;83.70;;;;;;5042635;28;20415;-74
2023/12/13 09:47:16;;;;;;;5.73;1.50;;;9.70;83.60;;;;;;5048963;28;20439;-73
2023/12/13 09:49:43;;;;;;;6.40;3.60;;;9.70;83.70;;;;;;5037171;28;20238;-73
2023/12/13 09:52:09;;;;;;;6.83;1.83;;;9.70;83.80;;;;;;5035401;28;20450;-73
2023/12/13 09:54:40;;;;;;;3.83;1.70;;;9.70;84.00;;;;;;5040552;28;20439;-72
2023/12/13 09:57:06;;;;;;;3.00;1.73;;;9.70;83.80;;;;;;5041757;28;20536;-72
2023/12/13 09:59:32;;;;;;;4.13;1.60;;;9.70;83.80;;;;;;5034662;28;20876;-73
2023/12/13 10:01:59;;;;;;;2.87;1.40;;;9.80;83.60;;;;;;5037765;28;20424;-72
2023/12/13 10:04:28;;;;;;;3.17;1.83;;;9.80;83.40;;;;;;5038512;28;20195;-73
2023/12/13 10:06:56;;;;;;;8.50;2.10;;;9.80;83.70;;;;;;5043711;28;20420;-73
2023/12/13 10:09:28;;;;;;;5.03;2.50;;;9.80;83.70;;;;;;5044601;28;20574;-72
2023/12/13 10:11:58;;;;;;;4.50;2.00;;;9.80;83.70;;;;;;5038439;28;20482;-74
2023/12/13 10:14:24;;;;;;;5.77;1.90;;;9.90;83.60;;;;;;5044770;28;20407;-74
2023/12/13 10:16:50;;;;;;;3.77;1.57;;;9.90;83.60;;;;;;5042271;28;20981;-74
2023/12/13 10:19:16;;;;;;;3.57;1.70;;;10.00;83.60;;;;;;5042093;28;20622;-74
2023/12/13 10:21:41;;;;;;;4.60;2.23;;;10.10;83.60;;;;;;5042097;28;20220;-73
2023/12/13 10:24:07;;;;;;;4.60;1.80;;;10.10;83.10;;;;;;5047694;28;20470;-73
2023/12/13 10:26:36;;;;;;;6.27;1.63;;;10.10;83.10;;;;;;5042469;28;20527;-74
2023/12/13 10:29:03;;;;;;;4.67;1.70;;;10.00;83.10;;;;;;5047380;28;20215;-74
2023/12/13 10:31:30;;;;;;;5.63;2.10;;;10.00;83.40;;;;;;5046228;28;20450;-74
2023/12/13 10:33:56;;;;;;;4.00;2.03;;;10.00;83.40;;;;;;5043922;28;20438;-73
2023/12/13 10:36:26;;;;;;;3.97;1.80;;;10.00;83.40;;;;;;5042682;28;20428;-73
2023/12/13 10:38:53;;;;;;;2.10;1.53;;;9.90;83.60;;;;;;5048530;28;20418;-73
2023/12/13 10:41:25;;;;;;;5.23;1.93;;;9.90;84.00;;;;;;5046390;28;20831;-73
2023/12/13 10:43:55;;;;;;;4.57;1.80;;;9.80;84.10;;;;;;5038162;28;20545;-74
2023/12/13 10:46:22;;;;;;;3.23;1.70;;;9.80;84.60;;;;;;5036644;28;20416;-73
2023/12/13 10:48:48;;;;;;;5.40;1.80;;;9.70;84.70;;;;;;5047762;28;20967;-73
2023/12/13 10:51:15;;;;;;;6.83;1.97;;;9.80;84.90;;;;;;5040686;28;20453;-75
2023/12/13 10:53:42;;;;;;;5.23;2.10;;;9.90;84.90;;;;;;5040832;28;20439;-73
2023/12/13 10:56:08;;;;;;;5.33;2.00;;;9.90;84.60;;;;;;5043818;28;20547;-74
2023/12/13 10:58:35;;;;;;;2.93;1.70;;;9.90;84.30;;;;;;5057823;28;20428;-73
2023/12/13 11:01:02;;;;;;;3.47;1.80;;;10.00;84.10;;;;;;5034806;28;20467;-73
2023/12/13 11:03:38;;;;;;;5.00;2.07;;;9.90;83.80;;;;;;5043067;28;20419;-73
2023/12/13 11:06:05;;;;;;;6.70;1.80;;;9.90;84.00;;;;;;5049081;28;20406;-76
2023/12/13 11:08:39;;;;;;;3.77;1.97;;;9.90;84.30;;;;;;5039057;28;20881;-73
2023/12/13 11:11:13;;;;;;;3.97;2.43;;;9.90;84.30;;;;;;5041295;28;20491;-73
2023/12/13 11:13:52;;;;;;;4.47;2.07;;;9.90;84.00;;;;;;5038486;28;20940;-73
2023/12/13 11:16:18;;;;;;;3.07;1.80;;;9.90;83.80;;;;;;5046432;28;20433;-72
2023/12/13 11:18:45;;;;;;;3.70;1.70;;;10.00;83.60;;;;;;5040983;28;20856;-74
2023/12/13 11:21:27;;;;;;;3.13;1.50;;;10.10;83.40;;;;;;5038055;28;20251;-73
2023/12/13 11:24:00;;;;;;;4.50;1.73;;;10.10;83.40;;;;;;5045435;28;20426;-73
2023/12/13 11:26:32;;;;;;;2.93;1.40;;;10.20;82.40;;;;;;5052824;28;20432;-73
2023/12/13 11:28:59;;;;;;;7.93;2.00;;;10.30;82.40;;;;;;5046146;28;21021;-73
2023/12/13 11:31:26;;;;;;;2.07;1.43;;;10.40;82.40;;;;;;5040056;28;20470;-73
2023/12/13 11:33:58;;;;;;;3.20;1.90;;;10.40;80.60;;;;;;5040472;28;20416;-72
2023/12/13 11:36:25;;;;;;;3.30;1.63;;;10.50;80.30;;;;;;5040736;28;20424;-74
2023/12/13 11:38:53;;;;;;;3.93;1.97;;;10.60;80.30;;;;;;5034921;28;20518;-74
2023/12/13 11:41:19;;;;;;;2.23;1.40;;;10.60;79.50;;;;;;5040962;28;20938;-72
2023/12/13 11:43:45;;;;;;;2.10;1.40;;;10.70;79.50;;;;;;5048897;28;20466;-75
2023/12/13 11:46:12;;;;;;;5.07;1.63;;;10.80;79.50;;;;;;5039915;28;20185;-73
2023/12/13 11:48:39;;;;;;;5.47;1.53;;;10.80;79.70;;;;;;5039565;28;20469;-74
2023/12/13 11:51:05;;;;;;;2.40;1.40;;;10.90;79.20;;;;;;5054648;28;20452;-74
2023/12/13 11:53:32;;;;;;;1.63;1.20;;;11.00;78.90;;;;;;5046066;28;20950;-73
2023/12/13 11:55:58;;;;;;;2.03;1.37;;;11.00;78.60;;;;;;5038538;28;20650;-73
2023/12/13 11:58:29;;;;;;;3.60;1.50;;;11.00;78.90;;;;;;5046239;28;20415;-73
2023/12/13 12:00:57;;;;;;;2.50;1.50;;;11.10;78.60;;;;;;5037048;28;20983;-73
2023/12/13 12:03:23;;;;;;;2.70;1.83;;;11.10;79.00;;;;;;5042174;28;20422;-73
2023/12/13 12:05:49;;;;;;;4.43;1.40;;;11.20;78.90;;;;;;5039158;28;20814;-73
2023/12/13 12:08:14;;;;;;;2.20;1.40;;;11.40;77.80;;;;;;5041849;28;20196;-74
2023/12/13 12:10:42;;;;;;;2.70;1.30;;;11.50;77.40;;;;;;5035053;28;20466;-75
2023/12/13 12:13:08;;;;;;;1.53;1.00;;;11.50;76.50;;;;;;5042608;28;20276;-73
2023/12/13 12:15:35;;;;;;;2.13;1.20;;;11.50;75.50;;;;;;5045713;28;20502;-73
2023/12/13 12:18:02;;;;;;;2.77;1.10;;;11.40;74.90;;;;;;5053204;28;20238;-72
2023/12/13 12:20:28;;;;;;;3.10;1.40;;;11.40;75.70;;;;;;5041492;28;20475;-74
2023/12/13 12:22:54;;;;;;;3.13;1.47;;;11.30;75.50;;;;;;5038448;28;20511;-73
2023/12/13 12:25:22;;;;;;;4.77;1.50;;;11.40;76.10;;;;;;5048460;28;20188;-73
2023/12/13 12:27:49;;;;;;;2.40;1.40;;;11.50;75.70;;;;;;5044669;28;20216;-73
2023/12/13 12:30:18;;;;;;;5.80;1.90;;;11.60;75.20;;;;;;5031933;28;20542;-73
2023/12/13 12:32:48;;;;;;;4.27;1.60;;;11.60;75.20;;;;;;5038681;28;20812;-73
2023/12/13 12:35:13;;;;;;;4.30;1.73;;;11.70;75.70;;;;;;5038246;28;20435;-74
2023/12/13 12:37:40;;;;;;;8.80;1.87;;;11.80;75.10;;;;;;5038469;28;20435;-73
2023/12/13 12:40:08;;;;;;;1.90;1.23;;;12.00;74.90;;;;;;5035388;28;20205;-74
2023/12/13 12:42:34;;;;;;;2.47;1.10;;;12.10;73.20;;;;;;5041601;28;20415;-73
2023/12/13 12:45:02;;;;;;;3.33;1.33;;;12.10;72.40;;;;;;5044963;28;20464;-73
2023/12/13 12:47:28;;;;;;;3.70;1.40;;;12.10;73.30;;;;;;5046190;28;20185;-73
2023/12/13 12:49:54;;;;;;;2.07;1.20;;;12.10;74.00;;;;;;5045762;28;20534;-73